This is the latest recevied weather packets stored in our database for station/object IZ3VCM. If no packets are shown the sender has not sent any weather packets the latest 10 day(s).
| Time | Temp. | Humidity | Pressure | Rain* | Wind** | Luminosity | Snow |
|---|---|---|---|---|---|---|---|
| 1777807806 | 28.33° C | 37% | 1017.8 hPa | 0 mm | - | - | - |
| 1777806903 | 27.78° C | 35% | 1017.7 hPa | 0 mm | - | - | - |
| 1777806006 | 27.78° C | 38% | 1017.8 hPa | 0 mm | - | - | - |
| 1777805103 | 27.78° C | 38% | 1018.1 hPa | 0 mm | - | - | - |
| 1777804205 | 26.67° C | 37% | 1018.3 hPa | 0 mm | - | - | - |
| 1777803303 | 27.78° C | 36% | 1018.4 hPa | 0 mm | - | - | - |
| 1777802405 | 27.22° C | 35% | 1018.6 hPa | 0 mm | - | - | - |
| 1777801503 | 26.67° C | 40% | 1018.8 hPa | 0 mm | - | - | - |
| 1777800605 | 26.67° C | 40% | 1018.7 hPa | 0 mm | - | - | - |
| 1777799704 | 25.56° C | 44% | 1018.7 hPa | 0 mm | - | - | - |
| 1777798805 | 25° C | 46% | 1018.8 hPa | 0 mm | - | - | - |
| 1777797903 | 25° C | 47% | 1018.8 hPa | 0 mm | - | - | - |
| 1777797005 | 25.56° C | 47% | 1018.9 hPa | 0 mm | - | - | - |
| 1777796103 | 25° C | 47% | 1019 hPa | 0 mm | - | - | - |
| 1777795205 | 24.44° C | 49% | 1019 hPa | 0 mm | - | - | - |
| 1777794303 | 23.89° C | 49% | 1019.2 hPa | 0 mm | - | - | - |
| 1777793405 | 23.33° C | 53% | 1019.2 hPa | 0 mm | - | - | - |
| 1777792503 | 23.33° C | 53% | 1019.4 hPa | 0 mm | - | - | - |
| 1777791605 | 22.22° C | 57% | 1019.2 hPa | 0 mm | - | - | - |
| 1777790703 | 20.56° C | 58% | 1019.1 hPa | 0 mm | - | - | - |
| 1777760103 | 14.44° C | 58% | 1020.3 hPa | 0 mm | - | - | - |
| 1777759205 | 15° C | 58% | 1020.3 hPa | 0 mm | - | - | - |
| 1777758302 | 15.56° C | 56% | 1020.3 hPa | 0 mm | - | - | - |
| 1777757405 | 16.11° C | 54% | 1020.3 hPa | 0 mm | - | - | - |
| 1777756503 | 16.67° C | 52% | 1020.4 hPa | 0 mm | - | - | - |
* Rain latest hour (hover to see other rain measurements)
** Current wind speed in m/s (hover to see current wind gust speed)